Terminal Aerodrome Forecast
Issued by NWS

Current Version | Previous Version | Graphics & Text | Print | Product List | Glossary On
Versions: 1 2 3 4 5 6 7 8 9 10 11 12 13 14 15 16 17 18 19 20 21 22
000
FTUS41 KRLX 270848 AAA
TAFCKB
TAF AMD
KCKB 270848Z 2709/2806 09004KT 6SM SHRA BR OVC090
      TEMPO 2709/2712 2SM SHRA BR SCT002
     FM271400 13007KT 3SM SHRA BR VCTS OVC025CB
     FM271700 19009KT 5SM SHRA BR VCTS BKN050CB
     FM271900 20010G15KT P6SM SHRA VCTS BKN050CB
     FM272200 21008KT P6SM BKN035=

USA.gov is the U.S. government's official web portal to all federal, state and local government web resources and services.